Time;durP1;ratioP1;P1;durP2;ratioP2;P2;SDS_P1;SDS_P2;PMS_P1;PMS_P2;Temp;Humidity;BMP_temperature;BMP_pressure;BME280_temperature;BME280_humidity;BME280_pressure;Samples;Min_cycle;Max_cycle;Signal;HPM_P1;HPM_P2
2022/06/24 00:01:41;;;;;;;;;;;;;;;17.79;78.94;95099.72;5154480;27;1909;-49
2022/06/24 00:04:08;;;;;;;;;;;;;;;17.64;79.85;95096.38;5136110;27;1024;-49
2022/06/24 00:06:43;;;;;;;;;;;;;;;17.60;79.84;95101.38;5154339;27;1099;-49
2022/06/24 00:09:10;;;;;;;;;;;;;;;17.85;79.01;95095.38;5154564;27;1198;-49
2022/06/24 00:11:37;;;;;;;;;;;;;;;18.12;78.30;95088.94;5154464;27;988;-49
2022/06/24 00:14:08;;;;;;;;;;;;;;;18.14;78.55;95084.16;5154364;27;1544;-49
2022/06/24 00:16:53;;;;;;;;;;;;;;;17.93;79.13;95085.22;5136151;27;1463;-49
2022/06/24 00:19:20;;;;;;;;;;;;;;;17.68;80.13;95093.09;5154147;27;1608;-49
2022/06/24 00:22:16;;;;;;;;;;;;;;;17.69;80.63;95093.91;5135633;27;1918;-49
2022/06/24 00:24:43;;;;;;;;;;;;;;;17.52;81.01;95086.19;5114799;27;1715;-49
2022/06/24 00:27:25;;;;;;;;;;;;;;;17.51;80.39;95097.19;5135676;27;1028;-49
2022/06/24 00:29:54;;;;;;;;;;;;;;;17.52;81.14;95101.56;5154569;27;1000;-49
2022/06/24 00:32:31;;;;;;;;;;;;;;;17.80;80.45;95106.81;5135614;27;1106;-49
2022/06/24 00:35:04;;;;;;;;;;;;;;;17.90;80.57;95111.84;5154089;27;1525;-49
2022/06/24 00:37:31;;;;;;;;;;;;;;;17.67;81.15;95095.97;5154161;27;1039;-49
2022/06/24 00:39:59;;;;;;;;;;;;;;;17.65;80.76;95098.06;5153893;27;1929;-49
2022/06/24 00:42:26;;;;;;;;;;;;;;;17.84;80.23;95099.97;5154442;27;1023;-49
2022/06/24 00:45:02;;;;;;;;;;;;;;;18.11;79.56;95108.91;5153989;27;1095;-49
2022/06/24 00:47:30;;;;;;;;;;;;;;;18.22;78.79;95109.34;5154062;27;1102;-49
2022/06/24 00:49:58;;;;;;;;;;;;;;;18.19;79.32;95121.38;5154100;27;940;-49
2022/06/24 00:52:24;;;;;;;;;;;;;;;18.16;79.08;95121.00;5154272;27;1055;-49
2022/06/24 00:54:50;;;;;;;;;;;;;;;18.12;79.70;95116.00;5158287;27;992;-49
2022/06/24 00:57:17;;;;;;;;;;;;;;;18.11;79.44;95108.09;5139798;27;1082;-53
2022/06/24 00:59:45;;;;;;;;;;;;;;;17.93;79.46;95096.03;5139669;27;1260;-49
2022/06/24 01:02:14;;;;;;;;;;;;;;;17.68;80.41;95112.00;5157609;27;1910;-50
2022/06/24 01:04:40;;;;;;;;;;;;;;;17.47;81.91;95112.16;5157748;27;1024;-50
2022/06/24 01:07:06;;;;;;;;;;;;;;;17.37;81.57;95107.16;5157441;27;1039;-49
2022/06/24 01:09:32;;;;;;;;;;;;;;;17.21;81.98;95119.19;5157565;27;1063;-49
2022/06/24 01:11:59;;;;;;;;;;;;;;;17.24;82.33;95117.94;5157891;27;1220;-49
2022/06/24 01:14:25;;;;;;;;;;;;;;;17.44;82.30;95129.63;5157996;27;1622;-49
2022/06/24 01:16:51;;;;;;;;;;;;;;;17.56;81.74;95124.44;5157616;27;1024;-49
2022/06/24 01:19:18;;;;;;;;;;;;;;;17.71;80.96;95119.69;5157650;27;1091;-50
2022/06/24 01:21:45;;;;;;;;;;;;;;;17.83;81.24;95116.38;5138993;27;1910;-49
2022/06/24 01:24:19;;;;;;;;;;;;;;;17.81;80.71;95118.44;5157388;27;1043;-49
2022/06/24 01:26:47;;;;;;;;;;;;;;;17.71;81.47;95110.75;5157598;27;1115;-49
2022/06/24 01:29:14;;;;;;;;;;;;;;;17.58;82.37;95118.84;5157659;27;1027;-49
2022/06/24 01:31:41;;;;;;;;;;;;;;;17.55;81.95;95112.00;5157904;27;968;-49
2022/06/24 01:34:08;;;;;;;;;;;;;;;17.63;81.99;95116.38;5157543;27;1544;-49
2022/06/24 01:36:34;;;;;;;;;;;;;;;17.72;81.87;95118.66;5157420;27;1024;-49
2022/06/24 01:39:01;;;;;;;;;;;;;;;17.84;81.82;95112.63;5157265;27;1094;-49
2022/06/24 01:41:27;;;;;;;;;;;;;;;17.90;81.74;95111.84;5157584;27;1905;-49
2022/06/24 01:43:53;;;;;;;;;;;;;;;17.89;81.69;95116.41;5157523;27;1266;-49
2022/06/24 01:46:19;;;;;;;;;;;;;;;17.68;81.77;95116.56;5157401;27;1321;-49
2022/06/24 01:48:45;;;;;;;;;;;;;;;17.55;82.27;95120.91;5157136;27;1092;-49
2022/06/24 01:51:13;;;;;;;;;;;;;;;17.48;82.62;95119.25;5157398;27;1261;-49
2022/06/24 01:53:39;;;;;;;;;;;;;;;17.37;82.66;95118.78;5157289;27;1035;-50
2022/06/24 01:56:05;;;;;;;;;;;;;;;17.30;83.56;95112.56;5139224;27;1036;-49
2022/06/24 01:58:31;;;;;;;;;;;;;;;17.38;83.09;95108.84;5158166;27;1040;-49
2022/06/24 02:00:58;;;;;;;;;;;;;;;17.67;81.85;95117.63;5139585;27;2004;-49
2022/06/24 02:03:24;;;;;;;;;;;;;;;17.67;81.68;95107.63;5158106;27;1651;-49
2022/06/24 02:05:51;;;;;;;;;;;;;;;17.67;81.68;95102.22;5157350;27;999;-49
2022/06/24 02:08:17;;;;;;;;;;;;;;;17.48;82.28;95111.13;5158112;27;1517;-50
2022/06/24 02:13:29;;;;;;;;;;;;;;;17.24;83.42;95126.84;5157929;27;1032;-49
2022/06/24 02:16:01;;;;;;;;;;;;;;;17.04;84.05;95134.09;5157637;27;1051;-49
2022/06/24 02:18:28;;;;;;;;;;;;;;;17.15;83.65;95130.81;5157595;27;1040;-49
2022/06/24 02:20:54;;;;;;;;;;;;;;;17.45;82.57;95135.84;5157405;27;1909;-49
2022/06/24 02:23:21;;;;;;;;;;;;;;;17.45;82.72;95131.28;5157749;27;1035;-49
2022/06/24 02:25:48;;;;;;;;;;;;;;;17.37;83.65;95126.91;5122258;27;1609;-49
2022/06/24 02:28:14;;;;;;;;;;;;;;;17.34;82.55;95116.50;5157548;27;1031;-49
2022/06/24 02:30:41;;;;;;;;;;;;;;;17.40;83.22;95122.16;5157484;27;1043;-49
2022/06/24 02:33:08;;;;;;;;;;;;;;;17.37;83.47;95112.56;5157643;27;1021;-49
2022/06/24 02:35:34;;;;;;;;;;;;;;;17.31;83.73;95116.91;5157528;27;979;-49
2022/06/24 02:38:00;;;;;;;;;;;;;;;17.12;83.93;95125.78;5157320;27;1094;-49
2022/06/24 02:43:12;;;;;;;;;;;;;;;17.17;84.30;95134.13;5157242;27;1086;-49
2022/06/24 02:45:39;;;;;;;;;;;;;;;17.04;84.76;95134.09;5157206;27;1180;-49
2022/06/24 02:48:06;;;;;;;;;;;;;;;16.92;85.50;95131.94;5157181;27;1115;-49
2022/06/24 02:50:42;;;;;;;;;;;;;;;17.03;85.26;95132.41;5157015;27;1115;-49
2022/06/24 02:53:09;;;;;;;;;;;;;;;17.25;84.27;95128.53;5138758;27;1091;-49
2022/06/24 02:55:36;;;;;;;;;;;;;;;17.35;84.20;95120.03;5157025;27;984;-48
2022/06/24 02:58:03;;;;;;;;;;;;;;;17.49;83.18;95115.50;5156836;27;2687;-49
2022/06/24 03:00:29;;;;;;;;;;;;;;;17.25;84.48;95106.09;5156665;27;1996;-48
2022/06/24 03:02:56;;;;;;;;;;;;;;;17.24;84.19;95118.75;5138591;27;1642;-49
2022/06/24 03:05:22;;;;;;;;;;;;;;;17.22;84.85;95131.63;5156756;27;1584;-49
2022/06/24 03:07:48;;;;;;;;;;;;;;;17.26;84.93;95132.06;5156586;27;1060;-49
2022/06/24 03:10:15;;;;;;;;;;;;;;;17.32;84.67;95134.81;5156627;27;1091;-48
2022/06/24 03:12:41;;;;;;;;;;;;;;;17.43;84.98;95138.75;5156628;27;1103;-48
2022/06/24 03:15:08;;;;;;;;;;;;;;;17.36;84.68;95140.63;5156372;27;1036;-48
2022/06/24 03:17:34;;;;;;;;;;;;;;;17.34;84.18;95145.41;5156686;27;969;-49
2022/06/24 03:20:00;;;;;;;;;;;;;;;17.32;84.81;95142.06;5156480;27;1253;-49
2022/06/24 03:22:26;;;;;;;;;;;;;;;17.29;85.09;95123.56;5156358;27;1909;-49
2022/06/24 03:24:52;;;;;;;;;;;;;;;17.29;85.08;95126.25;5156328;27;1032;-49
2022/06/24 03:27:18;;;;;;;;;;;;;;;17.33;84.75;95120.25;5156207;27;948;-49
2022/06/24 03:29:45;;;;;;;;;;;;;;;17.45;85.02;95130.44;5156521;27;1135;-49
2022/06/24 03:32:11;;;;;;;;;;;;;;;17.55;84.56;95125.50;5137936;27;953;-49
2022/06/24 03:34:37;;;;;;;;;;;;;;;17.53;84.27;95127.59;5156188;27;1080;-49
2022/06/24 03:37:03;;;;;;;;;;;;;;;17.37;84.26;95140.41;5156124;27;1099;-49
2022/06/24 03:39:29;;;;;;;;;;;;;;;17.33;84.68;95131.03;5155971;27;1060;-49
2022/06/24 03:41:55;;;;;;;;;;;;;;;17.42;85.00;95136.28;5155907;27;1906;-49
2022/06/24 03:44:21;;;;;;;;;;;;;;;17.53;85.22;95133.81;5156065;27;1115;-48
2022/06/24 03:46:47;;;;;;;;;;;;;;;17.60;85.06;95133.81;5155998;27;1149;-49
2022/06/24 03:49:15;;;;;;;;;;;;;;;17.66;84.70;95132.16;5120745;27;1523;-50
2022/06/24 03:51:41;;;;;;;;;;;;;;;17.61;84.44;95131.97;5156000;27;991;-49
2022/06/24 03:54:07;;;;;;;;;;;;;;;17.58;85.18;95135.88;5155907;27;1015;-49
2022/06/24 03:56:33;;;;;;;;;;;;;;;17.49;85.46;95126.28;5155771;27;1087;-49
2022/06/24 03:58:59;;;;;;;;;;;;;;;17.47;85.04;95134.63;5155973;27;1283;-49
2022/06/24 04:01:26;;;;;;;;;;;;;;;17.52;85.97;95134.84;5137303;27;1980;-49
2022/06/24 04:03:52;;;;;;;;;;;;;;;17.49;86.15;95137.97;5155671;27;1099;-48
2022/06/24 04:06:18;;;;;;;;;;;;;;;17.53;85.00;95138.41;5155782;27;1003;-49
2022/06/24 04:08:44;;;;;;;;;;;;;;;17.58;84.74;95135.06;5155717;27;924;-48
2022/06/24 04:11:11;;;;;;;;;;;;;;;17.79;84.59;95136.75;5137145;27;948;-48
2022/06/24 04:13:37;;;;;;;;;;;;;;;17.98;83.02;95143.25;5155825;27;1121;-49
2022/06/24 04:16:04;;;;;;;;;;;;;;;17.99;83.20;95142.22;5155493;27;1074;-49
2022/06/24 04:18:30;;;;;;;;;;;;;;;17.97;84.87;95145.13;5155644;27;1052;-49
2022/06/24 04:20:56;;;;;;;;;;;;;;;18.08;84.50;95157.19;5155199;27;1905;-49
2022/06/24 04:23:22;;;;;;;;;;;;;;;18.17;84.94;95158.66;5155443;27;1038;-49
2022/06/24 04:25:48;;;;;;;;;;;;;;;18.32;83.95;95159.28;5155294;27;1279;-50
2022/06/24 04:28:15;;;;;;;;;;;;;;;18.51;82.17;95160.28;5154810;27;1094;-50
2022/06/24 04:30:41;;;;;;;;;;;;;;;18.83;80.50;95157.78;5155329;27;1082;-50
2022/06/24 04:33:07;;;;;;;;;;;;;;;19.02;79.58;95153.34;5155266;27;1059;-49
2022/06/24 04:35:33;;;;;;;;;;;;;;;19.13;78.92;95141.00;5155299;27;1034;-50
2022/06/24 04:37:59;;;;;;;;;;;;;;;19.20;79.84;95154.53;5155297;27;1048;-49
2022/06/24 04:40:25;;;;;;;;;;;;;;;19.23;79.08;95144.09;5155160;27;2024;-50
2022/06/24 04:42:51;;;;;;;;;;;;;;;19.26;78.62;95142.84;5155416;27;987;-50
2022/06/24 04:45:17;;;;;;;;;;;;;;;19.40;78.93;95157.16;5155322;27;944;-49
2022/06/24 04:47:43;;;;;;;;;;;;;;;19.28;80.06;95160.53;5136626;27;1193;-49
2022/06/24 04:50:10;;;;;;;;;;;;;;;19.27;80.38;95168.88;5154999;27;1012;-50
2022/06/24 04:52:37;;;;;;;;;;;;;;;19.38;79.27;95167.38;5155130;27;949;-50
2022/06/24 04:55:03;;;;;;;;;;;;;;;19.34;79.98;95160.72;5155104;27;979;-50
2022/06/24 04:57:29;;;;;;;;;;;;;;;19.33;80.45;95161.78;5155220;27;1056;-51
2022/06/24 04:59:55;;;;;;;;;;;;;;;19.20;78.95;95163.50;5155242;27;1047;-51
2022/06/24 05:02:21;;;;;;;;;;;;;;;19.15;79.75;95160.59;5136556;27;2472;-52
2022/06/24 05:04:47;;;;;;;;;;;;;;;19.26;80.08;95156.41;5134344;28;1044;-51
2022/06/24 05:07:13;;;;;;;;;;;;;;;19.35;78.36;95151.53;5134333;28;973;-50
2022/06/24 05:09:40;;;;;;;;;;;;;;;19.29;79.18;95148.66;5134181;28;1032;-52
2022/06/24 05:12:06;;;;;;;;;;;;;;;19.19;79.84;95150.97;5134222;28;1016;-50
2022/06/24 05:14:33;;;;;;;;;;;;;;;19.13;81.16;95161.88;5133170;27;1557;-51
2022/06/24 05:16:59;;;;;;;;;;;;;;;19.13;80.57;95159.16;5145677;27;1609;-49
2022/06/24 05:19:25;;;;;;;;;;;;;;;19.20;82.33;95176.19;5133936;28;1075;-50
2022/06/24 05:21:52;;;;;;;;;;;;;;;19.24;80.75;95166.63;5133970;27;1910;-50
2022/06/24 05:24:18;;;;;;;;;;;;;;;19.17;81.36;95174.75;5133961;28;1198;-50
2022/06/24 05:26:44;;;;;;;;;;;;;;;19.16;82.17;95175.81;5134141;28;965;-50
2022/06/24 05:29:11;;;;;;;;;;;;;;;19.20;83.25;95174.34;5134187;28;976;-49
2022/06/24 05:31:37;;;;;;;;;;;;;;;19.23;82.81;95181.19;5115733;28;1040;-49
2022/06/24 05:34:04;;;;;;;;;;;;;;;19.23;81.44;95182.03;5134125;27;1149;-49
2022/06/24 05:36:30;;;;;;;;;;;;;;;19.23;79.06;95184.75;5133707;28;1040;-50
2022/06/24 05:38:57;;;;;;;;;;;;;;;19.30;78.64;95180.13;5133869;27;1048;-49
2022/06/24 05:41:23;;;;;;;;;;;;;;;19.29;78.84;95180.34;5136987;27;1997;-48
2022/06/24 05:43:49;;;;;;;;;;;;;;;19.29;80.04;95191.19;5137528;27;1016;-48
2022/06/24 05:46:15;;;;;;;;;;;;;;;19.26;79.54;95203.28;5119463;27;973;-49
2022/06/24 05:48:42;;;;;;;;;;;;;;;19.47;80.69;95204.06;5119309;27;1352;-49
2022/06/24 05:51:09;;;;;;;;;;;;;;;19.53;78.12;95207.78;5137402;27;1095;-48
2022/06/24 05:56:20;;;;;;;;;;;;;;;20.21;78.65;95204.50;5137235;27;1076;-49
2022/06/24 05:58:46;;;;;;;;;;;;;;;20.26;78.70;95213.66;5119091;27;1221;-50
2022/06/24 06:01:13;;;;;;;;;;;;;;;20.56;78.12;95209.44;5137138;27;1995;-49
2022/06/24 06:03:39;;;;;;;;;;;;;;;20.99;75.08;95201.31;5137262;27;961;-51
2022/06/24 06:06:06;;;;;;;;;;;;;;;21.53;73.96;95198.03;5137133;27;1011;-49
2022/06/24 06:08:33;;;;;;;;;;;;;;;22.00;72.68;95203.69;5137255;27;987;-49
2022/06/24 06:11:00;;;;;;;;;;;;;;;22.03;70.73;95206.78;5137108;27;1043;-49
2022/06/24 06:13:28;;;;;;;;;;;;;;;22.14;71.07;95207.03;5137269;27;1036;-50
2022/06/24 06:15:55;;;;;;;;;;;;;;;22.36;70.97;95210.09;5136982;27;999;-49
2022/06/24 06:18:21;;;;;;;;;;;;;;;22.62;68.87;95203.41;5136980;27;1142;-50
2022/06/24 06:20:47;;;;;;;;;;;;;;;22.49;69.21;95209.06;5136650;27;1914;-49
2022/06/24 06:23:13;;;;;;;;;;;;;;;22.54;69.24;95190.13;5136815;27;1083;-48
2022/06/24 06:25:39;;;;;;;;;;;;;;;22.70;69.04;95204.94;5136722;27;949;-50
2022/06/24 06:28:06;;;;;;;;;;;;;;;22.75;69.17;95208.63;5101788;27;1868;-52
2022/06/24 06:30:33;;;;;;;;;;;;;;;22.80;66.63;95210.63;5118627;27;1027;-50
2022/06/24 06:32:59;;;;;;;;;;;;;;;22.89;68.87;95202.94;5118457;27;1117;-50
2022/06/24 06:35:26;;;;;;;;;;;;;;;22.92;67.45;95202.47;5101626;27;1503;-49
2022/06/24 06:37:53;;;;;;;;;;;;;;;23.00;67.44;95200.19;5136608;27;1087;-49
2022/06/24 06:40:21;;;;;;;;;;;;;;;23.10;67.39;95198.81;5101302;27;2004;-50
2022/06/24 06:42:50;;;;;;;;;;;;;;;23.13;67.89;95201.06;5118460;27;980;-50
2022/06/24 06:45:17;;;;;;;;;;;;;;;23.10;63.85;95199.63;5136413;27;1059;-49
2022/06/24 06:47:43;;;;;;;;;;;;;;;23.26;66.17;95198.09;5136452;27;1170;-49
2022/06/24 06:50:09;;;;;;;;;;;;;;;23.56;63.37;95199.78;5136624;27;1547;-51
2022/06/24 06:52:36;;;;;;;;;;;;;;;23.67;63.26;95190.72;5117978;27;1151;-52
2022/06/24 06:55:03;;;;;;;;;;;;;;;23.78;65.27;95191.78;5136438;27;1530;-49
2022/06/24 06:57:31;;;;;;;;;;;;;;;23.75;66.23;95195.84;5118235;27;1037;-49
2022/06/24 06:59:58;;;;;;;;;;;;;;;23.79;64.82;95196.22;5117909;27;1475;-49
2022/06/24 07:02:25;;;;;;;;;;;;;;;23.95;64.98;95195.41;5100623;27;1906;-49
2022/06/24 07:04:53;;;;;;;;;;;;;;;23.90;65.33;95202.69;5105529;27;1552;-49
2022/06/24 07:07:20;;;;;;;;;;;;;;;23.86;64.95;95204.25;5100973;27;1436;-49
2022/06/24 07:09:47;;;;;;;;;;;;;;;24.03;64.10;95201.56;5135766;27;1103;-49
2022/06/24 07:12:13;;;;;;;;;;;;;;;24.15;65.50;95203.19;5117672;27;1099;-49
2022/06/24 07:14:41;;;;;;;;;;;;;;;24.11;64.59;95204.75;5100976;27;1621;-49
2022/06/24 07:17:08;;;;;;;;;;;;;;;24.25;64.12;95201.72;5135635;27;1685;-49
2022/06/24 07:19:34;;;;;;;;;;;;;;;24.19;64.28;95205.41;5117777;27;1633;-49
2022/06/24 07:22:01;;;;;;;;;;;;;;;24.22;61.32;95192.06;5100201;27;1887;-50
2022/06/24 07:24:27;;;;;;;;;;;;;;;24.30;61.71;95190.84;5117087;27;1986;-49
2022/06/24 07:26:54;;;;;;;;;;;;;;;24.42;61.43;95190.81;5135568;27;1844;-49
2022/06/24 07:29:20;;;;;;;;;;;;;;;24.46;58.77;95191.97;5117342;27;1031;-49
2022/06/24 07:31:47;;;;;;;;;;;;;;;24.59;60.49;95193.59;5135362;27;1035;-49
2022/06/24 07:34:14;;;;;;;;;;;;;;;24.75;58.17;95185.34;5134776;27;2663;-49
2022/06/24 07:36:41;;;;;;;;;;;;;;;24.90;60.98;95182.03;5145808;27;2266;-48
2022/06/24 07:39:07;;;;;;;;;;;;;;;24.89;60.10;95185.84;5141882;27;2479;-49
2022/06/24 07:41:33;;;;;;;;;;;;;;;25.00;60.79;95181.34;5134835;27;1980;-50
2022/06/24 07:44:00;;;;;;;;;;;;;;;25.01;61.24;95183.00;5153524;27;1146;-49
2022/06/24 07:46:26;;;;;;;;;;;;;;;25.17;60.50;95180.50;5137187;27;1035;-51
2022/06/24 07:48:52;;;;;;;;;;;;;;;25.11;56.77;95179.59;5155340;27;1028;-49
2022/06/24 07:51:19;;;;;;;;;;;;;;;25.22;57.67;95175.09;5146521;27;2412;-49
2022/06/24 07:53:47;;;;;;;;;;;;;;;25.35;57.00;95191.19;5134900;27;978;-49
2022/06/24 07:58:58;;;;;;;;;;;;;;;25.34;56.29;95184.03;5134664;27;1012;-49
2022/06/24 08:01:25;;;;;;;;;;;;;;;25.37;56.87;95180.81;5134509;27;1886;-49
2022/06/24 08:03:51;;;;;;;;;;;;;;;25.53;56.24;95192.78;5133884;27;1094;-50
2022/06/24 08:06:17;;;;;;;;;;;;;;;25.59;58.58;95199.16;5116206;27;1468;-49
2022/06/24 08:08:43;;;;;;;;;;;;;;;25.62;57.16;95195.91;5134626;27;1192;-49
2022/06/24 08:11:10;;;;;;;;;;;;;;;25.80;56.41;95192.00;5134280;27;1056;-49
2022/06/24 08:13:36;;;;;;;;;;;;;;;25.67;55.94;95188.59;5134351;27;1103;-49
2022/06/24 08:16:02;;;;;;;;;;;;;;;25.62;55.08;95198.66;5134211;27;1111;-49
2022/06/24 08:18:28;;;;;;;;;;;;;;;25.51;52.52;95190.28;5134378;27;1044;-49
2022/06/24 08:20:55;;;;;;;;;;;;;;;25.47;56.32;95191.06;5134261;27;1921;-49
2022/06/24 08:23:21;;;;;;;;;;;;;;;25.75;54.25;95173.63;5134366;27;1031;-48
2022/06/24 08:25:49;;;;;;;;;;;;;;;26.00;53.59;95175.84;5134175;27;1128;-49
2022/06/24 08:28:15;;;;;;;;;;;;;;;26.17;55.86;95174.91;5133999;27;2573;-49
2022/06/24 08:30:41;;;;;;;;;;;;;;;26.26;52.89;95174.19;5134152;27;1115;-49
2022/06/24 08:33:08;;;;;;;;;;;;;;;26.19;53.22;95176.31;5134218;27;976;-49
2022/06/24 08:35:34;;;;;;;;;;;;;;;26.12;53.66;95172.13;5134012;27;1039;-49
2022/06/24 08:38:01;;;;;;;;;;;;;;;26.08;53.93;95169.06;5134128;28;1114;-49
2022/06/24 08:40:29;;;;;;;;;;;;;;;26.29;52.46;95173.69;5115022;28;2574;-49
2022/06/24 08:42:56;;;;;;;;;;;;;;;26.43;51.13;95171.34;5144662;27;1134;-48
2022/06/24 08:45:23;;;;;;;;;;;;;;;26.50;50.86;95165.63;5148941;27;2798;-55
2022/06/24 08:47:50;;;;;;;;;;;;;;;26.55;50.58;95160.19;5138195;27;2522;-61
2022/06/24 08:50:17;;;;;;;;;;;;;;;26.49;49.93;95159.31;5133740;27;2299;-55
2022/06/24 08:52:50;;;;;;;;;;;;;;;26.56;51.37;95156.38;5133991;28;1049;-49
2022/06/24 08:55:17;;;;;;;;;;;;;;;26.75;51.79;95164.19;5133655;28;1850;-50
2022/06/24 08:57:44;;;;;;;;;;;;;;;26.79;50.10;95159.88;5116035;28;1760;-49
2022/06/24 09:00:12;;;;;;;;;;;;;;;26.81;51.93;95160.44;5134068;28;1056;-50
2022/06/24 09:02:39;;;;;;;;;;;;;;;26.93;52.26;95155.56;5133700;28;2518;-49
2022/06/24 09:05:09;;;;;;;;;;;;;;;26.84;50.00;95162.63;5133543;27;1425;-49
2022/06/24 09:07:36;;;;;;;;;;;;;;;26.60;51.28;95159.44;5134206;28;1069;-49
2022/06/24 09:10:10;;;;;;;;;;;;;;;26.71;51.24;95163.09;5133914;28;1068;-49
2022/06/24 09:12:38;;;;;;;;;;;;;;;26.75;50.53;95159.56;5133704;28;1119;-50
2022/06/24 09:15:05;;;;;;;;;;;;;;;26.88;50.57;95174.72;5136532;27;1012;-49
2022/06/24 09:17:32;;;;;;;;;;;;;;;26.79;50.66;95166.19;5137798;27;1573;-49
2022/06/24 09:20:06;;;;;;;;;;;;;;;26.82;49.35;95173.84;5137877;27;1439;-50
2022/06/24 09:22:32;;;;;;;;;;;;;;;26.75;51.15;95165.06;5137354;27;1979;-49
2022/06/24 09:25:00;;;;;;;;;;;;;;;26.76;51.12;95158.47;5119551;27;1028;-49
2022/06/24 09:27:26;;;;;;;;;;;;;;;26.75;49.66;95153.22;5137655;27;980;-48
2022/06/24 09:29:52;;;;;;;;;;;;;;;26.77;47.73;95162.03;5137922;27;1063;-48
2022/06/24 09:32:18;;;;;;;;;;;;;;;26.88;49.61;95164.59;5137552;27;969;-48
2022/06/24 09:35:17;;;;;;;;;;;;;;;27.00;48.28;95161.66;5137569;27;988;-49
2022/06/24 09:37:47;;;;;;;;;;;;;;;26.81;48.18;95165.91;5090074;27;2020;-48
2022/06/24 09:40:17;;;;;;;;;;;;;;;26.79;47.34;95168.09;5149769;27;2572;-49
2022/06/24 09:42:55;;;;;;;;;;;;;;;26.95;48.77;95158.06;5146817;27;1200;-49
2022/06/24 09:45:51;;;;;;;;;;;;;;;27.10;46.17;95155.41;5137146;27;2197;-48
2022/06/24 09:48:34;;;;;;;;;;;;;;;26.99;46.99;95149.00;5137454;27;1032;-48
2022/06/24 09:51:02;;;;;;;;;;;;;;;26.82;49.05;95143.69;5137291;27;1412;-49
2022/06/24 09:53:29;;;;;;;;;;;;;;;26.98;47.08;95152.03;5137197;27;1059;-49
2022/06/24 09:55:55;;;;;;;;;;;;;;;27.05;49.45;95149.88;5136879;27;1082;-49
2022/06/24 09:58:22;;;;;;;;;;;;;;;27.07;48.77;95144.94;5118730;27;1102;-49
2022/06/24 10:00:49;;;;;;;;;;;;;;;27.20;48.70;95146.41;5136769;27;2005;-49
2022/06/24 10:03:15;;;;;;;;;;;;;;;27.37;47.68;95149.81;5136636;27;1087;-49
2022/06/24 10:05:44;;;;;;;;;;;;;;;27.33;46.99;95147.88;5118853;27;1452;-49
2022/06/24 10:08:12;;;;;;;;;;;;;;;27.42;45.77;95157.25;5136756;27;1087;-49
2022/06/24 10:10:41;;;;;;;;;;;;;;;27.23;43.80;95143.13;5136529;27;977;-49
2022/06/24 10:13:09;;;;;;;;;;;;;;;27.15;46.42;95146.34;5136440;27;1059;-49
2022/06/24 10:15:35;;;;;;;;;;;;;;;27.14;46.08;95145.53;5136958;27;1036;-49
2022/06/24 10:18:06;;;;;;;;;;;;;;;27.23;45.22;95151.38;5135704;27;988;-48
2022/06/24 10:20:33;;;;;;;;;;;;;;;27.40;46.59;95151.22;5136264;27;1909;-49
2022/06/24 10:22:59;;;;;;;;;;;;;;;27.34;45.08;95150.34;5136558;27;1088;-49
2022/06/24 10:25:44;;;;;;;;;;;;;;;27.15;45.96;95151.84;5135891;27;962;-49
2022/06/24 10:28:10;;;;;;;;;;;;;;;27.26;47.14;95153.59;5136508;27;957;-49
2022/06/24 10:30:39;;;;;;;;;;;;;;;27.40;46.22;95157.53;5136645;27;1086;-49
2022/06/24 10:33:15;;;;;;;;;;;;;;;27.48;46.23;95156.19;5134923;27;1133;-49
2022/06/24 10:35:53;;;;;;;;;;;;;;;27.52;45.09;95151.81;5136265;27;1020;-49
2022/06/24 10:38:20;;;;;;;;;;;;;;;27.43;44.17;95151.50;5136203;27;1087;-49
2022/06/24 10:40:47;;;;;;;;;;;;;;;27.60;46.55;95147.72;5136335;27;1992;-49
2022/06/24 10:43:13;;;;;;;;;;;;;;;27.76;45.33;95145.88;5136020;27;1160;-49
2022/06/24 10:45:40;;;;;;;;;;;;;;;27.84;44.06;95148.09;5118149;27;1016;-49
2022/06/24 10:48:06;;;;;;;;;;;;;;;27.78;44.52;95143.69;5135875;27;1079;-49
2022/06/24 10:50:32;;;;;;;;;;;;;;;27.52;43.09;95145.50;5136410;27;933;-49
2022/06/24 10:53:02;;;;;;;;;;;;;;;27.46;43.90;95150.13;5136135;27;969;-49
2022/06/24 10:55:32;;;;;;;;;;;;;;;27.52;46.71;95146.31;5136231;27;1043;-49
2022/06/24 10:58:03;;;;;;;;;;;;;;;27.08;44.13;95147.44;5135941;27;1062;-49
2022/06/24 11:00:53;;;;;;;;;;;;;;;27.17;45.20;95145.03;5136028;27;1989;-49
2022/06/24 11:03:20;;;;;;;;;;;;;;;27.45;45.67;95146.56;5135910;27;1238;-49
2022/06/24 11:05:46;;;;;;;;;;;;;;;27.46;45.72;95134.47;5135639;27;1063;-49
2022/06/24 11:08:13;;;;;;;;;;;;;;;27.33;44.48;95142.38;5135729;27;944;-49
2022/06/24 11:10:40;;;;;;;;;;;;;;;27.52;45.47;95138.06;5135919;27;1051;-49
2022/06/24 11:13:06;;;;;;;;;;;;;;;27.68;43.29;95132.63;5135582;27;1193;-49
2022/06/24 11:15:32;;;;;;;;;;;;;;;27.85;43.97;95133.25;5135689;27;1012;-49
2022/06/24 11:18:04;;;;;;;;;;;;;;;27.98;44.06;95132.78;5135740;27;1059;-49
2022/06/24 11:20:30;;;;;;;;;;;;;;;28.02;42.04;95135.78;5130776;27;1979;-49
2022/06/24 11:22:56;;;;;;;;;;;;;;;28.04;42.45;95130.88;5114851;28;1131;-49
2022/06/24 11:25:23;;;;;;;;;;;;;;;28.08;43.07;95128.38;5096877;28;1045;-49
2022/06/24 11:27:49;;;;;;;;;;;;;;;27.85;42.03;95127.78;5114687;28;961;-50
2022/06/24 11:30:15;;;;;;;;;;;;;;;27.45;41.78;95124.59;5096999;28;1033;-50
2022/06/24 11:32:51;;;;;;;;;;;;;;;27.23;42.17;95122.00;5096629;28;1065;-49
2022/06/24 11:35:18;;;;;;;;;;;;;;;27.34;44.35;95127.56;5114578;28;1062;-48
2022/06/24 11:37:44;;;;;;;;;;;;;;;27.06;43.23;95124.91;5113634;28;968;-49
2022/06/24 11:40:18;;;;;;;;;;;;;;;27.20;42.92;95127.19;5114716;28;1040;-49
2022/06/24 11:42:44;;;;;;;;;;;;;;;27.35;43.48;95119.06;5124511;27;1985;-48
2022/06/24 11:45:10;;;;;;;;;;;;;;;27.57;44.21;95124.38;5135309;27;982;-49
2022/06/24 11:47:36;;;;;;;;;;;;;;;27.74;42.57;95121.41;5135107;27;1024;-48
2022/06/24 11:50:03;;;;;;;;;;;;;;;27.80;43.00;95120.31;5116607;27;1028;-49
2022/06/24 11:52:43;;;;;;;;;;;;;;;27.88;42.26;95116.22;5135166;27;1068;-48
2022/06/24 11:55:23;;;;;;;;;;;;;;;28.11;41.83;95125.09;5134682;27;1099;-49
2022/06/24 11:57:56;;;;;;;;;;;;;;;28.29;41.95;95132.81;5116927;27;1042;-49
2022/06/24 12:00:24;;;;;;;;;;;;;;;28.14;40.53;95117.13;5134773;27;1036;-48
2022/06/24 12:02:50;;;;;;;;;;;;;;;28.03;41.12;95118.22;5134958;27;1000;-48
2022/06/24 12:05:17;;;;;;;;;;;;;;;27.95;41.31;95118.75;5134299;27;1045;-50
2022/06/24 12:07:43;;;;;;;;;;;;;;;28.01;40.68;95117.66;5116504;27;1041;-50
2022/06/24 12:10:09;;;;;;;;;;;;;;;28.06;38.40;95112.19;5134481;27;1001;-49
2022/06/24 12:12:36;;;;;;;;;;;;;;;28.08;40.07;95112.72;5134903;27;965;-48
2022/06/24 12:15:02;;;;;;;;;;;;;;;28.15;41.01;95106.94;5134554;27;1003;-49
2022/06/24 12:17:29;;;;;;;;;;;;;;;28.22;41.41;95111.06;5116410;27;1122;-48
2022/06/24 12:19:57;;;;;;;;;;;;;;;28.22;40.25;95113.81;5134395;27;1029;-49
2022/06/24 12:22:23;;;;;;;;;;;;;;;28.22;40.96;95116.56;5134370;27;1993;-48
2022/06/24 12:24:58;;;;;;;;;;;;;;;28.18;39.73;95117.41;5133137;27;1086;-49
2022/06/24 12:27:31;;;;;;;;;;;;;;;28.21;38.30;95116.84;5134814;27;1014;-48
2022/06/24 12:29:57;;;;;;;;;;;;;;;28.20;38.46;95118.78;5133112;27;1040;-49
2022/06/24 12:32:23;;;;;;;;;;;;;;;28.16;37.78;95120.44;5134465;27;1048;-49
2022/06/24 12:34:54;;;;;;;;;;;;;;;28.12;38.39;95118.50;5132766;27;1033;-51
2022/06/24 12:37:21;;;;;;;;;;;;;;;27.97;37.53;95111.88;5134654;27;1016;-48
2022/06/24 12:39:47;;;;;;;;;;;;;;;27.97;35.32;95108.31;5133020;28;1051;-50
2022/06/24 12:42:17;;;;;;;;;;;;;;;27.91;35.91;95109.41;5127020;28;2241;-49
2022/06/24 12:44:50;;;;;;;;;;;;;;;27.95;36.57;95105.00;5112458;28;1048;-50
2022/06/24 12:52:50;;;;;;;;;;;;;;;28.20;37.73;95112.47;5118036;28;1023;-49
2022/06/24 12:55:18;;;;;;;;;;;;;;;28.17;36.39;95104.75;5116552;28;1661;-49
2022/06/24 12:57:44;;;;;;;;;;;;;;;28.07;35.68;95108.31;5117906;28;989;-49
2022/06/24 13:00:11;;;;;;;;;;;;;;;28.08;37.78;95109.97;5117586;28;1940;-49
2022/06/24 13:02:41;;;;;;;;;;;;;;;28.14;37.65;95113.56;5118162;28;1922;-49
2022/06/24 13:05:07;;;;;;;;;;;;;;;28.13;35.47;95111.91;5117719;28;1036;-49
2022/06/24 13:07:33;;;;;;;;;;;;;;;28.17;37.40;95100.09;5117781;28;1051;-49
2022/06/24 13:09:59;;;;;;;;;;;;;;;28.10;34.31;95099.53;5117526;28;1040;-49
2022/06/24 13:12:25;;;;;;;;;;;;;;;28.06;36.65;95103.94;5117597;28;1985;-49
2022/06/24 13:14:51;;;;;;;;;;;;;;;28.21;37.07;95103.09;5117793;28;1055;-49
2022/06/24 13:17:17;;;;;;;;;;;;;;;28.33;36.95;95100.09;5117371;28;1049;-49